createdAt,value
2018-05-09T00:02:18.817Z,5.10
2018-05-09T00:04:52.683Z,5.20
2018-05-09T00:07:27.784Z,5.33
2018-05-09T00:10:01.514Z,5.53
2018-05-09T00:12:35.155Z,5.27
2018-05-09T00:15:09.843Z,4.30
2018-05-09T00:17:43.693Z,4.63
2018-05-09T00:20:17.368Z,5.40
2018-05-09T00:22:51.088Z,4.93
2018-05-09T00:25:24.888Z,4.57
2018-05-09T00:27:58.720Z,4.77
2018-05-09T00:30:32.580Z,4.80
2018-05-09T00:33:06.406Z,4.60
2018-05-09T00:35:40.135Z,4.87
2018-05-09T00:38:14.039Z,4.63
2018-05-09T00:40:48.050Z,5.10
2018-05-09T00:43:21.684Z,6.30
2018-05-09T00:45:55.501Z,6.30
2018-05-09T00:48:29.328Z,5.80
2018-05-09T00:51:03.261Z,5.80
2018-05-09T00:53:37.268Z,5.80
2018-05-09T00:56:10.916Z,5.37
2018-05-09T00:58:44.698Z,5.70
2018-05-09T01:01:19.143Z,5.50
2018-05-09T01:03:52.934Z,6.07
2018-05-09T01:06:26.736Z,6.30
2018-05-09T01:09:01.461Z,6.30
2018-05-09T01:11:35.388Z,6.07
2018-05-09T01:14:09.287Z,6.00
2018-05-09T01:16:43.924Z,5.53
2018-05-09T01:19:17.728Z,6.60
2018-05-09T01:21:51.551Z,6.27
2018-05-09T01:24:26.329Z,5.80
2018-05-09T01:27:00.023Z,6.50
2018-05-09T01:29:33.733Z,6.77
2018-05-09T01:32:07.595Z,6.27
2018-05-09T01:34:42.343Z,6.37
2018-05-09T01:37:16.009Z,6.43
2018-05-09T01:39:49.828Z,7.03
2018-05-09T01:42:24.506Z,6.47
2018-05-09T01:44:58.234Z,6.03
2018-05-09T01:47:32.021Z,7.10
2018-05-09T01:50:05.923Z,7.00
2018-05-09T01:52:40.451Z,6.33
2018-05-09T01:55:14.246Z,7.33
2018-05-09T01:57:48.990Z,6.97
2018-05-09T02:00:22.880Z,7.03
2018-05-09T02:02:56.589Z,7.33
2018-05-09T02:05:30.425Z,7.33
2018-05-09T02:08:04.113Z,6.80
2018-05-09T02:10:37.813Z,6.30
2018-05-09T02:13:11.632Z,6.87
2018-05-09T02:15:45.524Z,6.70
2018-05-09T02:18:19.374Z,6.63
2018-05-09T02:20:53.220Z,6.50
2018-05-09T02:23:27.849Z,7.97
2018-05-09T02:26:02.383Z,7.17
2018-05-09T02:28:36.178Z,6.37
2018-05-09T02:31:10.078Z,6.67
2018-05-09T02:33:44.608Z,6.93
2018-05-09T02:36:18.252Z,7.03
2018-05-09T02:38:52.098Z,6.87
2018-05-09T02:41:26.008Z,6.73
2018-05-09T02:44:00.480Z,7.30
2018-05-09T02:46:34.357Z,7.10
2018-05-09T02:49:08.263Z,7.57
2018-05-09T02:51:42.726Z,6.50
2018-05-09T02:54:16.479Z,7.57
2018-05-09T02:56:50.273Z,8.07
2018-05-09T02:59:24.004Z,7.23
2018-05-09T03:01:58.667Z,7.07
2018-05-09T03:04:32.615Z,6.77
2018-05-09T03:07:06.442Z,6.77
2018-05-09T03:09:40.238Z,6.40
2018-05-09T03:12:14.142Z,7.10
2018-05-09T03:14:47.902Z,7.43
2018-05-09T03:17:21.546Z,7.13
2018-05-09T03:19:55.442Z,6.37
2018-05-09T03:22:29.085Z,7.23
2018-05-09T03:25:02.934Z,8.03
2018-05-09T03:27:37.620Z,7.73
2018-05-09T03:30:11.334Z,7.80
2018-05-09T03:32:45.005Z,7.73
2018-05-09T03:35:18.764Z,7.80
2018-05-09T03:37:52.621Z,7.83
2018-05-09T03:40:26.440Z,7.07
2018-05-09T03:43:01.172Z,8.13
2018-05-09T03:45:34.939Z,7.90
2018-05-09T03:48:09.691Z,7.40
2018-05-09T03:50:43.527Z,7.63
2018-05-09T03:53:17.388Z,7.40
2018-05-09T03:55:51.060Z,8.50
2018-05-09T03:58:24.893Z,8.63
2018-05-09T04:00:58.844Z,8.00
2018-05-09T04:03:45.046Z,8.60
2018-05-09T04:06:30.936Z,8.93
2018-05-09T04:09:17.467Z,8.30
2018-05-09T04:11:51.176Z,8.87
2018-05-09T04:14:25.708Z,9.33
2018-05-09T04:16:59.480Z,8.57
2018-05-09T04:19:33.366Z,8.20
2018-05-09T04:22:07.814Z,9.10
2018-05-09T04:24:41.657Z,9.63
2018-05-09T04:27:15.348Z,8.83
2018-05-09T04:29:50.016Z,9.03
2018-05-09T04:32:23.776Z,8.57
2018-05-09T04:34:58.190Z,8.83
2018-05-09T04:37:31.977Z,8.77
2018-05-09T04:40:06.649Z,9.47
2018-05-09T04:42:41.112Z,9.40
2018-05-09T04:45:16.024Z,9.33
2018-05-09T04:47:49.722Z,9.33
2018-05-09T04:50:23.573Z,8.77
2018-05-09T04:52:57.399Z,9.23
2018-05-09T04:55:32.045Z,9.23
2018-05-09T04:58:05.711Z,10.53
2018-05-09T05:00:39.613Z,10.17
2018-05-09T05:03:13.496Z,9.73
2018-05-09T05:05:47.280Z,9.53
2018-05-09T05:08:20.903Z,10.17
2018-05-09T05:10:55.093Z,9.33
2018-05-09T05:13:28.952Z,9.40
2018-05-09T05:16:04.857Z,8.97
2018-05-09T05:18:39.387Z,9.53
2018-05-09T05:21:13.433Z,9.07
2018-05-09T05:23:47.296Z,8.77
2018-05-09T05:26:21.292Z,9.30
2018-05-09T05:28:55.776Z,9.83
2018-05-09T05:31:29.520Z,9.17
2018-05-09T05:34:03.712Z,8.10
2018-05-09T05:36:37.730Z,8.30
2018-05-09T05:39:12.695Z,9.53
2018-05-09T05:41:46.553Z,11.00
2018-05-09T05:44:20.384Z,9.97
2018-05-09T05:46:55.001Z,9.77
2018-05-09T05:49:29.458Z,8.20
2018-05-09T05:52:03.438Z,11.73
2018-05-09T05:54:37.294Z,9.73
2018-05-09T05:57:11.181Z,9.23
2018-05-09T05:59:45.848Z,9.70
2018-05-09T06:02:19.636Z,9.37
2018-05-09T06:04:53.463Z,12.03
2018-05-09T06:07:27.172Z,9.63
2018-05-09T06:10:00.939Z,12.77
2018-05-09T06:12:34.691Z,11.60
2018-05-09T06:15:08.401Z,10.73
2018-05-09T06:17:42.960Z,12.17
2018-05-09T06:20:16.901Z,13.30
2018-05-09T06:22:50.657Z,12.37
2018-05-09T06:25:24.658Z,14.10
2018-05-09T06:27:58.471Z,11.63
2018-05-09T06:30:32.317Z,13.90
2018-05-09T06:33:06.123Z,12.87
2018-05-09T06:35:40.057Z,13.27
2018-05-09T06:38:15.034Z,14.07
2018-05-09T06:40:48.868Z,15.30
2018-05-09T06:43:23.019Z,14.80
2018-05-09T06:45:56.935Z,14.50
2018-05-09T06:48:30.904Z,15.10
2018-05-09T06:51:05.480Z,14.60
2018-05-09T06:53:40.097Z,15.40
2018-05-09T06:56:13.856Z,16.00
2018-05-09T06:58:47.723Z,14.30
2018-05-09T07:01:22.235Z,14.87
2018-05-09T07:03:55.934Z,14.77
2018-05-09T07:06:29.852Z,14.43
2018-05-09T07:09:05.285Z,13.27
2018-05-09T07:11:39.120Z,12.30
2018-05-09T07:14:12.852Z,12.60
2018-05-09T07:16:41.072Z,14.20
2018-05-09T07:19:09.324Z,15.73
2018-05-09T07:21:38.366Z,14.37
2018-05-09T07:24:07.493Z,13.83
2018-05-09T07:26:35.676Z,10.87
2018-05-09T07:29:03.884Z,12.67
2018-05-09T07:31:32.057Z,9.23
2018-05-09T07:34:00.239Z,11.57
2018-05-09T07:36:28.472Z,11.43
2018-05-09T07:38:56.658Z,12.93
2018-05-09T07:41:24.971Z,13.37
2018-05-09T07:43:53.927Z,11.20
2018-05-09T07:46:22.718Z,12.20
2018-05-09T07:48:51.081Z,11.93
2018-05-09T07:51:19.290Z,9.37
2018-05-09T07:53:47.470Z,11.60
2018-05-09T07:56:16.434Z,11.23
2018-05-09T07:58:44.627Z,11.00
2018-05-09T08:01:13.620Z,8.67
2018-05-09T08:03:41.909Z,9.27
2018-05-09T08:06:10.856Z,10.37
2018-05-09T08:08:39.032Z,9.20
2018-05-09T08:11:07.229Z,6.47
2018-05-09T08:13:35.795Z,7.53
2018-05-09T08:16:04.013Z,7.60
2018-05-09T08:18:32.225Z,8.63
2018-05-09T08:21:00.411Z,8.93
2018-05-09T08:23:28.627Z,11.30
2018-05-09T08:25:57.647Z,11.00
2018-05-09T08:28:25.837Z,12.97
2018-05-09T08:30:54.049Z,11.97
2018-05-09T08:33:23.007Z,12.10
2018-05-09T08:35:51.220Z,9.97
2018-05-09T08:38:20.203Z,9.13
2018-05-09T08:40:48.455Z,7.23
2018-05-09T08:43:16.831Z,6.93
2018-05-09T08:45:45.119Z,6.37
2018-05-09T08:48:13.301Z,6.40
2018-05-09T08:50:41.522Z,5.33
2018-05-09T08:53:10.372Z,5.87
2018-05-09T08:55:38.591Z,4.93
2018-05-09T08:58:06.773Z,4.90
2018-05-09T09:00:38.578Z,3.63
2018-05-09T09:03:06.967Z,9.67
2018-05-09T09:05:35.911Z,13.53
2018-05-09T09:08:04.129Z,15.93
2018-05-09T09:10:32.425Z,19.17
2018-05-09T09:13:01.379Z,15.13
2018-05-09T09:15:30.465Z,15.60
2018-05-09T09:17:59.035Z,13.33
2018-05-09T09:20:27.337Z,11.47
2018-05-09T09:22:56.359Z,11.63
2018-05-09T09:25:24.896Z,12.17
2018-05-09T09:27:53.321Z,11.97
2018-05-09T09:30:21.784Z,11.73
2018-05-09T09:32:50.162Z,10.40
2018-05-09T09:35:19.391Z,10.03
2018-05-09T09:37:47.649Z,7.60
2018-05-09T09:40:15.847Z,8.87
2018-05-09T09:42:44.213Z,9.27
2018-05-09T09:45:12.433Z,9.03
2018-05-09T09:47:41.428Z,10.17
2018-05-09T09:50:09.955Z,9.87
2018-05-09T09:52:38.899Z,9.43
2018-05-09T09:55:07.935Z,10.80
2018-05-09T09:57:36.864Z,15.88
2018-05-09T10:00:05.232Z,15.40
2018-05-09T10:02:33.899Z,16.13
2018-05-09T10:05:03.459Z,17.17
2018-05-09T10:07:32.468Z,16.13
2018-05-09T10:10:00.699Z,18.97
2018-05-09T10:12:33.537Z,18.27
2018-05-09T10:15:02.599Z,19.10
2018-05-09T10:17:31.995Z,18.60
2018-05-09T10:20:00.214Z,16.30
2018-05-09T10:22:36.995Z,16.10
2018-05-09T10:25:10.112Z,16.97
2018-05-09T10:27:41.336Z,14.80
2018-05-09T10:30:10.355Z,13.10
2018-05-09T10:32:40.361Z,14.83
2018-05-09T10:35:12.746Z,15.27
2018-05-09T10:37:41.927Z,17.53
2018-05-09T10:40:10.783Z,15.00
2018-05-09T10:42:39.317Z,14.70
2018-05-09T10:45:07.621Z,14.00
2018-05-09T10:47:36.173Z,15.00
2018-05-09T10:50:05.124Z,14.37
2018-05-09T10:52:33.380Z,14.17
2018-05-09T10:55:01.663Z,12.57
2018-05-09T10:57:29.928Z,13.00
2018-05-09T10:59:58.773Z,13.13
2018-05-09T11:02:27.762Z,11.40
2018-05-09T11:04:56.772Z,12.97
2018-05-09T11:07:25.029Z,12.97
2018-05-09T11:09:53.676Z,12.50
2018-05-09T11:12:21.898Z,14.70
2018-05-09T11:14:50.969Z,12.33
2018-05-09T11:17:19.349Z,13.33
2018-05-09T11:19:47.889Z,11.37
2018-05-09T11:22:16.112Z,11.93
2018-05-09T11:24:44.435Z,14.17
2018-05-09T11:27:13.702Z,12.13
2018-05-09T11:29:42.689Z,11.27
2018-05-09T11:32:11.678Z,12.43
2018-05-09T11:34:41.025Z,14.33
2018-05-09T11:37:09.271Z,8.37
2018-05-09T11:39:38.204Z,11.73
2018-05-09T11:42:06.396Z,12.87
2018-05-09T11:44:35.369Z,11.90
2018-05-09T11:47:03.657Z,11.37
2018-05-09T11:49:31.932Z,12.73
2018-05-09T11:52:00.123Z,12.23
2018-05-09T11:54:28.666Z,13.03
2018-05-09T11:56:56.865Z,10.50
2018-05-09T11:59:26.151Z,9.30
2018-05-09T12:01:54.361Z,10.30
2018-05-09T12:04:23.340Z,12.33
2018-05-09T12:06:52.407Z,13.03
2018-05-09T12:09:20.718Z,8.43
2018-05-09T12:11:49.696Z,11.50
2018-05-09T12:14:19.200Z,12.07
2018-05-09T12:16:48.227Z,10.10
2018-05-09T12:19:16.415Z,7.40
2018-05-09T12:21:44.600Z,12.60
2018-05-09T12:24:12.825Z,9.20
2018-05-09T12:26:41.878Z,5.93
2018-05-09T12:29:10.836Z,10.93
2018-05-09T12:31:39.056Z,6.80
2018-05-09T12:34:07.255Z,9.00
2018-05-09T12:36:36.363Z,8.37
2018-05-09T12:39:04.631Z,11.43
2018-05-09T12:41:33.607Z,9.30
2018-05-09T12:44:01.833Z,7.67
2018-05-09T12:46:30.162Z,10.37
2018-05-09T12:49:00.059Z,10.07
2018-05-09T12:51:28.255Z,11.20
2018-05-09T12:53:57.239Z,9.50
2018-05-09T12:56:25.426Z,9.67
2018-05-09T12:58:53.670Z,8.83
2018-05-09T13:01:22.669Z,14.40
2018-05-09T13:03:55.761Z,8.53
2018-05-09T13:06:24.182Z,9.50
2018-05-09T13:08:52.430Z,13.27
2018-05-09T13:11:21.447Z,15.90
2018-05-09T13:13:49.742Z,13.80
2018-05-09T13:16:18.325Z,13.40
2018-05-09T13:18:46.536Z,13.50
2018-05-09T13:21:14.773Z,15.50
2018-05-09T13:23:42.955Z,13.10
2018-05-09T13:26:11.160Z,14.83
2018-05-09T13:28:40.144Z,16.37
2018-05-09T13:31:09.184Z,15.77
2018-05-09T13:33:37.442Z,14.57
2018-05-09T13:36:05.666Z,16.50
2018-05-09T13:38:33.924Z,15.90
2018-05-09T13:41:02.160Z,16.43
2018-05-09T13:43:30.355Z,16.27
2018-05-09T13:45:58.631Z,16.60
2018-05-09T13:48:26.761Z,14.80
2018-05-09T13:50:55.863Z,14.87
2018-05-09T13:53:24.829Z,14.23
2018-05-09T13:55:53.065Z,14.87
2018-05-09T13:58:21.260Z,14.60
2018-05-09T14:00:49.516Z,12.77
2018-05-09T14:03:17.713Z,14.73
2018-05-09T14:05:45.928Z,13.93
2018-05-09T14:08:14.966Z,14.60
2018-05-09T14:10:43.189Z,14.57
2018-05-09T14:13:12.132Z,13.43
2018-05-09T14:15:40.425Z,10.77
2018-05-09T14:18:08.583Z,12.23
2018-05-09T14:20:36.811Z,11.00
2018-05-09T14:23:05.137Z,12.13
2018-05-09T14:25:33.521Z,10.47
2018-05-09T14:28:01.823Z,10.67
2018-05-09T14:30:30.013Z,10.33
2018-05-09T14:32:58.244Z,10.90
2018-05-09T14:35:26.437Z,9.80
2018-05-09T14:37:55.420Z,9.83
2018-05-09T14:40:23.603Z,9.77
2018-05-09T14:42:52.569Z,10.00
2018-05-09T14:45:20.756Z,9.87
2018-05-09T14:47:48.975Z,9.80
2018-05-09T14:50:17.773Z,10.57
2018-05-09T14:52:45.987Z,9.63
2018-05-09T14:55:14.186Z,9.33
2018-05-09T14:57:43.156Z,8.47
2018-05-09T15:00:12.196Z,7.83
2018-05-09T15:02:41.333Z,8.77
2018-05-09T15:05:09.618Z,9.30
2018-05-09T15:07:37.842Z,9.17
2018-05-09T15:10:06.777Z,9.20
2018-05-09T15:12:35.004Z,9.60
2018-05-09T15:15:03.208Z,9.37
2018-05-09T15:17:31.460Z,10.83
2018-05-09T15:19:59.676Z,8.43
2018-05-09T15:22:27.967Z,8.13
2018-05-09T15:24:56.931Z,8.80
2018-05-09T15:27:25.150Z,8.97
2018-05-09T15:29:53.360Z,8.20
2018-05-09T15:32:21.590Z,9.03
2018-05-09T15:34:50.563Z,8.00
2018-05-09T15:37:18.760Z,8.83
2018-05-09T15:39:46.997Z,7.90
2018-05-09T15:42:15.223Z,7.90
2018-05-09T15:44:43.626Z,7.63
2018-05-09T15:47:18.366Z,8.60
2018-05-09T15:49:49.647Z,8.57
2018-05-09T15:52:19.097Z,8.03
2018-05-09T15:54:47.629Z,8.30
2018-05-09T15:57:16.668Z,8.40
2018-05-09T15:59:45.146Z,8.67
2018-05-09T16:02:13.314Z,8.10
2018-05-09T16:04:41.671Z,8.43
2018-05-09T16:07:10.028Z,8.70
2018-05-09T16:09:40.250Z,8.37
2018-05-09T16:12:09.405Z,7.70
2018-05-09T16:14:37.672Z,7.73
2018-05-09T16:17:05.988Z,8.77
2018-05-09T16:19:35.312Z,7.63
2018-05-09T16:22:03.546Z,7.67
2018-05-09T16:24:32.547Z,8.00
2018-05-09T16:27:01.508Z,8.93
2018-05-09T16:29:29.859Z,8.80
2018-05-09T16:31:58.076Z,7.50
2018-05-09T16:34:26.280Z,8.30
2018-05-09T16:36:55.102Z,7.70
2018-05-09T16:39:23.430Z,7.90
2018-05-09T16:41:52.600Z,8.90
2018-05-09T16:44:20.885Z,7.63
2018-05-09T16:46:49.098Z,7.90
2018-05-09T16:49:17.321Z,8.47
2018-05-09T16:51:46.177Z,8.27
2018-05-09T17:00:58.956Z,9.57
2018-05-09T17:03:27.261Z,9.97
2018-05-09T17:05:56.408Z,9.50
2018-05-09T17:08:24.629Z,9.20
2018-05-09T17:10:52.856Z,10.57
2018-05-09T17:13:21.158Z,10.93
2018-05-09T17:15:49.453Z,10.40
2018-05-09T17:18:18.583Z,10.83
2018-05-09T17:20:47.688Z,10.43
2018-05-09T17:23:16.083Z,9.70
2018-05-09T17:25:44.331Z,11.60
2018-05-09T17:28:13.203Z,10.07
2018-05-09T17:30:41.700Z,10.57
2018-05-09T17:33:13.954Z,11.23
2018-05-09T17:35:43.033Z,9.23
2018-05-09T17:38:12.470Z,10.47
2018-05-09T17:40:47.822Z,11.53
2018-05-09T17:43:17.161Z,10.07
2018-05-09T17:45:46.217Z,9.77
2018-05-09T17:48:15.450Z,9.97
2018-05-09T17:50:48.647Z,10.30
2018-05-09T17:53:21.643Z,11.13
2018-05-09T17:55:50.210Z,10.30
2018-05-09T17:58:19.518Z,10.47
2018-05-09T18:00:48.022Z,9.93
2018-05-09T18:03:21.721Z,11.00
2018-05-09T18:05:53.676Z,9.93
2018-05-09T18:08:27.870Z,10.13
2018-05-09T18:10:56.986Z,10.03
2018-05-09T18:13:26.195Z,10.20
2018-05-09T18:16:02.152Z,10.07
2018-05-09T18:18:31.597Z,10.67
2018-05-09T18:21:00.569Z,10.83
2018-05-09T18:23:28.789Z,11.07
2018-05-09T18:25:57.045Z,11.43
2018-05-09T18:28:26.436Z,12.40
2018-05-09T18:30:56.525Z,11.57
2018-05-09T18:33:24.920Z,11.77
2018-05-09T18:35:53.383Z,11.40
2018-05-09T18:38:22.440Z,10.57
2018-05-09T18:40:57.345Z,12.37
2018-05-09T18:43:28.325Z,12.77
2018-05-09T18:45:57.688Z,13.33
2018-05-09T18:48:27.017Z,14.53
2018-05-09T18:50:56.970Z,13.03
2018-05-09T18:53:25.554Z,14.03
2018-05-09T18:55:54.168Z,14.30
2018-05-09T18:58:23.144Z,13.50
2018-05-09T19:00:51.458Z,14.13
2018-05-09T19:03:20.464Z,13.80
2018-05-09T19:05:49.468Z,15.17
2018-05-09T19:08:17.737Z,15.37
2018-05-09T19:10:46.148Z,15.60
2018-05-09T19:13:14.504Z,15.97
2018-05-09T19:15:43.751Z,15.77
2018-05-09T19:18:11.948Z,15.17
2018-05-09T19:20:40.408Z,16.07
2018-05-09T19:23:08.607Z,16.63
2018-05-09T19:25:37.679Z,16.13
2018-05-09T19:28:06.642Z,17.93
2018-05-09T19:30:35.378Z,18.13
2018-05-09T19:33:04.525Z,17.50
2018-05-09T19:35:32.859Z,17.17
2018-05-09T19:38:01.187Z,18.93
2018-05-09T19:40:29.476Z,17.33
2018-05-09T19:42:58.462Z,18.47
2018-05-09T19:45:27.446Z,18.13
2018-05-09T19:47:55.778Z,18.70
2018-05-09T19:50:24.076Z,18.87
2018-05-09T19:52:52.558Z,19.47
2018-05-09T19:55:20.815Z,20.87
2018-05-09T19:57:49.010Z,19.63
2018-05-09T20:00:17.494Z,21.73
2018-05-09T20:02:45.821Z,21.33
2018-05-09T20:05:14.889Z,20.33
2018-05-09T20:07:46.126Z,19.70
2018-05-09T20:10:14.315Z,19.17
2018-05-09T20:12:43.339Z,19.30
2018-05-09T20:15:11.661Z,19.60
2018-05-09T20:17:39.884Z,17.57
2018-05-09T20:20:08.273Z,18.53
2018-05-09T20:22:36.549Z,17.23
2018-05-09T20:25:04.735Z,17.27
2018-05-09T20:27:33.679Z,17.50
2018-05-09T20:30:02.779Z,16.13
2018-05-09T20:32:39.713Z,16.10
2018-05-09T20:35:07.991Z,15.80
2018-05-09T20:37:36.268Z,15.60
2018-05-09T20:40:04.695Z,15.83
2018-05-09T20:42:33.704Z,16.57
2018-05-09T20:45:01.932Z,16.57
2018-05-09T20:47:31.019Z,17.47
2018-05-09T20:49:59.267Z,15.97
2018-05-09T20:52:27.515Z,16.73
2018-05-09T20:54:55.859Z,15.63
2018-05-09T20:57:24.828Z,16.03
2018-05-09T20:59:53.069Z,15.90
2018-05-09T21:02:21.515Z,15.53
2018-05-09T21:04:50.485Z,17.00
2018-05-09T21:07:19.483Z,16.27
2018-05-09T21:09:48.504Z,17.60
2018-05-09T21:12:16.803Z,17.77
2018-05-09T21:14:45.118Z,18.90
2018-05-09T21:17:13.392Z,19.37
2018-05-09T21:19:41.703Z,18.50
2018-05-09T21:22:10.005Z,18.40
2018-05-09T21:24:38.213Z,20.07
2018-05-09T21:27:08.256Z,18.40
2018-05-09T21:29:37.215Z,20.60
2018-05-09T21:32:05.553Z,20.37
2018-05-09T21:34:33.741Z,20.43
2018-05-09T21:37:02.019Z,19.30
2018-05-09T21:39:30.505Z,18.53
2018-05-09T21:41:58.911Z,20.10
2018-05-09T21:44:27.135Z,20.13
2018-05-09T21:46:55.405Z,19.67
2018-05-09T21:49:23.640Z,19.47
2018-05-09T21:51:52.588Z,18.80
2018-05-09T21:54:20.787Z,19.07
2018-05-09T21:56:49.085Z,19.67
2018-05-09T21:59:18.180Z,19.63
2018-05-09T22:01:46.491Z,20.67
2018-05-09T22:04:14.768Z,20.33
2018-05-09T22:06:43.014Z,20.97
2018-05-09T22:09:12.054Z,21.67
2018-05-09T22:11:40.285Z,22.50
2018-05-09T22:14:08.647Z,23.50
2018-05-09T22:16:37.637Z,17.53
2018-05-09T22:19:06.683Z,18.90
2018-05-09T22:21:34.883Z,18.17
2018-05-09T22:24:03.122Z,15.60
2018-05-09T22:26:31.325Z,14.23
2018-05-09T22:28:59.510Z,13.50
2018-05-09T22:31:28.293Z,14.63
2018-05-09T22:33:57.365Z,15.27
2018-05-09T22:36:25.568Z,16.87
2018-05-09T22:38:54.591Z,16.07
2018-05-09T22:41:22.834Z,17.57
2018-05-09T22:43:51.050Z,17.87
2018-05-09T22:46:19.244Z,19.47
2018-05-09T22:48:47.480Z,20.13
2018-05-09T22:51:15.707Z,21.27
2018-05-09T22:53:44.686Z,19.60
2018-05-09T22:56:12.912Z,18.50
2018-05-09T22:58:41.958Z,13.60
2018-05-09T23:01:10.335Z,14.50
2018-05-09T23:03:38.534Z,14.33
2018-05-09T23:06:06.782Z,10.63
2018-05-09T23:08:35.179Z,13.77
2018-05-09T23:11:03.459Z,13.63
2018-05-09T23:13:31.687Z,13.67
2018-05-09T23:16:00.765Z,15.13
2018-05-09T23:21:02.808Z,14.07
2018-05-09T23:23:45.145Z,13.93
2018-05-09T23:26:28.417Z,14.60
2018-05-09T23:29:00.112Z,14.63
2018-05-09T23:31:32.030Z,14.03
2018-05-09T23:34:01.986Z,15.30
2018-05-09T23:36:37.434Z,14.60
2018-05-09T23:39:18.676Z,13.83
2018-05-09T23:41:47.775Z,14.53
2018-05-09T23:44:16.254Z,17.57
2018-05-09T23:46:44.592Z,14.77
2018-05-09T23:49:12.825Z,13.80
2018-05-09T23:51:41.462Z,13.60
2018-05-09T23:54:09.904Z,14.57
2018-05-09T23:56:38.198Z,18.57
2018-05-09T23:59:06.532Z,18.83
